createdAt,value
2018-07-15T00:01:01.240Z,20.03
2018-07-15T00:02:01.185Z,20.03
2018-07-15T00:03:54.207Z,19.91
2018-07-15T00:04:54.155Z,19.91
2018-07-15T00:06:47.159Z,19.82
2018-07-15T00:07:47.105Z,19.76
2018-07-15T00:09:39.953Z,19.63
2018-07-15T00:10:39.904Z,19.63
2018-07-15T00:12:32.704Z,19.62
2018-07-15T00:13:32.677Z,19.54
2018-07-15T00:15:25.700Z,19.44
2018-07-15T00:16:25.661Z,19.39
2018-07-15T00:18:18.790Z,19.31
2018-07-15T00:19:18.753Z,19.34
2018-07-15T00:21:11.591Z,19.33
2018-07-15T00:22:11.536Z,19.33
2018-07-15T00:24:04.547Z,19.29
2018-07-15T00:25:04.511Z,19.21
2018-07-15T00:26:57.626Z,19.31
2018-07-15T00:27:57.590Z,19.21
2018-07-15T00:29:50.616Z,19.33
2018-07-15T00:30:50.563Z,19.22
2018-07-15T00:32:43.556Z,19.22
2018-07-15T00:33:43.541Z,19.24
2018-07-15T00:35:36.359Z,19.26
2018-07-15T00:36:36.313Z,19.22
2018-07-15T00:38:29.336Z,19.21
2018-07-15T00:39:29.302Z,19.18
2018-07-15T00:41:22.372Z,19.19
2018-07-15T00:42:22.327Z,19.21
2018-07-15T00:44:15.493Z,19.21
2018-07-15T00:45:15.461Z,19.19
2018-07-15T00:47:08.479Z,19.15
2018-07-15T00:48:08.429Z,19.14
2018-07-15T00:50:01.250Z,19.12
2018-07-15T00:51:01.198Z,19.07
2018-07-15T00:52:54.380Z,18.99
2018-07-15T00:53:54.333Z,18.92
2018-07-15T00:55:47.334Z,18.99
2018-07-15T00:56:47.294Z,18.84
2018-07-15T00:58:40.555Z,18.86
2018-07-15T00:59:40.481Z,18.77
2018-07-15T01:01:33.509Z,18.78
2018-07-15T01:02:33.459Z,18.75
2018-07-15T01:04:26.298Z,18.73
2018-07-15T01:05:26.247Z,18.63
2018-07-15T01:07:19.440Z,18.65
2018-07-15T01:08:19.356Z,18.63
2018-07-15T01:10:12.390Z,18.60
2018-07-15T01:11:12.333Z,18.60
2018-07-15T01:13:05.363Z,18.53
2018-07-15T01:14:05.318Z,18.56
2018-07-15T01:15:58.120Z,18.52
2018-07-15T01:16:58.093Z,18.52
2018-07-15T01:18:51.007Z,18.38
2018-07-15T01:19:50.881Z,18.35
2018-07-15T01:21:43.893Z,18.40
2018-07-15T01:22:43.840Z,18.37
2018-07-15T01:24:36.882Z,18.38
2018-07-15T01:25:36.839Z,18.33
2018-07-15T01:27:29.867Z,18.25
2018-07-15T01:28:29.814Z,18.25
2018-07-15T01:30:22.813Z,18.29
2018-07-15T01:31:22.791Z,18.18
2018-07-15T01:33:16.016Z,18.19
2018-07-15T01:34:15.866Z,18.16
2018-07-15T01:36:08.876Z,18.15
2018-07-15T01:37:08.838Z,18.10
2018-07-15T01:39:01.866Z,18.13
2018-07-15T01:40:01.803Z,18.15
2018-07-15T01:41:54.645Z,17.97
2018-07-15T01:42:54.609Z,18.03
2018-07-15T01:44:47.645Z,17.95
2018-07-15T01:45:47.581Z,17.90
2018-07-15T01:47:40.615Z,17.85
2018-07-15T01:48:40.551Z,17.82
2018-07-15T01:50:33.595Z,17.83
2018-07-15T01:51:33.568Z,17.82
2018-07-15T01:53:26.580Z,17.71
2018-07-15T01:54:26.538Z,17.71
2018-07-15T01:56:19.536Z,17.68
2018-07-15T01:57:19.486Z,17.57
2018-07-15T01:59:12.296Z,17.59
2018-07-15T02:00:12.262Z,17.67
2018-07-15T02:02:05.225Z,17.63
2018-07-15T02:03:05.044Z,17.59
2018-07-15T02:04:58.059Z,17.57
2018-07-15T02:05:58.013Z,17.64
2018-07-15T02:07:51.006Z,17.60
2018-07-15T02:08:50.980Z,17.57
2018-07-15T02:10:44.150Z,17.51
2018-07-15T02:11:44.095Z,17.57
2018-07-15T02:13:37.516Z,17.51
2018-07-15T02:14:36.868Z,17.57
2018-07-15T02:16:29.902Z,17.54
2018-07-15T02:17:29.852Z,17.57
2018-07-15T02:19:22.661Z,17.45
2018-07-15T02:20:22.637Z,17.51
2018-07-15T02:22:15.571Z,17.48
2018-07-15T02:23:15.413Z,17.56
2018-07-15T02:25:08.411Z,17.38
2018-07-15T02:26:08.373Z,17.38
2018-07-15T02:28:01.397Z,17.41
2018-07-15T02:29:01.346Z,17.38
2018-07-15T02:30:54.467Z,17.36
2018-07-15T02:31:54.436Z,17.23
2018-07-15T02:33:47.443Z,17.30
2018-07-15T02:34:47.454Z,17.24
2018-07-15T02:36:40.766Z,17.20
2018-07-15T02:37:40.529Z,17.20
2018-07-15T02:39:33.576Z,17.19
2018-07-15T02:40:33.557Z,17.14
2018-07-15T02:42:26.581Z,17.19
2018-07-15T02:43:26.505Z,17.16
2018-07-15T02:45:19.384Z,17.15
2018-07-15T02:46:19.298Z,17.09
2018-07-15T02:48:12.316Z,17.08
2018-07-15T02:49:12.273Z,16.99
2018-07-15T02:51:05.312Z,17.01
2018-07-15T02:52:05.277Z,16.99
2018-07-15T02:53:58.373Z,16.96
2018-07-15T02:54:58.327Z,16.96
2018-07-15T02:56:51.347Z,16.93
2018-07-15T02:57:51.409Z,16.89
2018-07-15T02:59:44.698Z,16.83
2018-07-15T03:00:44.365Z,16.86
2018-07-15T03:02:37.372Z,16.86
2018-07-15T03:03:37.318Z,16.89
2018-07-15T03:05:30.313Z,16.91
2018-07-15T03:06:30.277Z,16.87
2018-07-15T03:08:23.572Z,16.84
2018-07-15T03:09:23.490Z,16.79
2018-07-15T03:11:16.310Z,16.79
2018-07-15T03:12:16.274Z,16.83
2018-07-15T03:14:09.310Z,16.74
2018-07-15T03:15:09.248Z,16.72
2018-07-15T03:17:02.304Z,16.71
2018-07-15T03:18:02.278Z,16.71
2018-07-15T03:19:55.285Z,16.72
2018-07-15T03:20:55.236Z,16.71
2018-07-15T03:22:48.443Z,16.74
2018-07-15T03:23:48.325Z,16.66
2018-07-15T03:25:41.339Z,16.68
2018-07-15T03:26:41.288Z,16.69
2018-07-15T03:28:34.309Z,16.68
2018-07-15T03:29:34.257Z,16.64
2018-07-15T03:31:27.110Z,16.66
2018-07-15T03:32:27.048Z,16.66
2018-07-15T03:34:20.071Z,16.60
2018-07-15T03:35:20.026Z,16.65
2018-07-15T03:37:13.044Z,16.53
2018-07-15T03:38:12.983Z,16.57
2018-07-15T03:40:06.153Z,16.49
2018-07-15T03:41:06.081Z,16.56
2018-07-15T03:42:59.093Z,16.46
2018-07-15T03:43:59.053Z,16.51
2018-07-15T03:45:52.064Z,16.42
2018-07-15T03:46:52.022Z,16.49
2018-07-15T03:48:44.835Z,16.26
2018-07-15T03:49:44.795Z,16.31
2018-07-15T03:51:37.809Z,16.31
2018-07-15T03:52:37.750Z,16.05
2018-07-15T03:54:30.775Z,16.16
2018-07-15T03:55:30.769Z,16.21
2018-07-15T03:57:23.919Z,16.16
2018-07-15T03:58:23.873Z,16.09
2018-07-15T04:00:16.863Z,16.08
2018-07-15T04:01:16.826Z,16.05
2018-07-15T04:03:09.850Z,16.04
2018-07-15T04:04:09.800Z,15.98
2018-07-15T04:06:02.734Z,16.02
2018-07-15T04:07:02.572Z,16.08
2018-07-15T04:08:55.638Z,16.01
2018-07-15T04:09:55.554Z,15.88
2018-07-15T04:11:48.566Z,15.98
2018-07-15T04:12:48.521Z,15.91
2018-07-15T04:14:41.681Z,15.94
2018-07-15T04:15:41.631Z,15.83
2018-07-15T04:17:34.650Z,15.86
2018-07-15T04:18:34.591Z,15.88
2018-07-15T04:20:27.745Z,15.80
2018-07-15T04:21:27.699Z,15.82
2018-07-15T04:23:20.725Z,15.83
2018-07-15T04:24:20.681Z,15.84
2018-07-15T04:26:13.675Z,15.83
2018-07-15T04:27:13.640Z,15.79
2018-07-15T04:29:06.750Z,15.88
2018-07-15T04:30:06.646Z,15.80
2018-07-15T04:31:59.662Z,15.79
2018-07-15T04:32:59.617Z,15.77
2018-07-15T04:34:52.642Z,15.86
2018-07-15T04:35:52.601Z,15.80
2018-07-15T04:37:45.704Z,15.79
2018-07-15T04:38:45.592Z,15.86
2018-07-15T04:40:38.621Z,15.91
2018-07-15T04:41:38.617Z,15.90
2018-07-15T04:43:31.743Z,15.79
2018-07-15T04:44:31.693Z,15.90
2018-07-15T04:46:24.701Z,15.94
2018-07-15T04:47:24.653Z,15.95
2018-07-15T04:49:17.657Z,15.98
2018-07-15T04:50:17.597Z,15.98
2018-07-15T04:52:10.493Z,15.95
2018-07-15T04:53:10.457Z,16.05
2018-07-15T04:55:03.501Z,16.09
2018-07-15T04:56:03.437Z,16.05
2018-07-15T04:57:56.427Z,16.05
2018-07-15T04:58:56.402Z,16.10
2018-07-15T05:00:49.578Z,16.15
2018-07-15T05:01:49.513Z,16.16
2018-07-15T05:03:42.538Z,16.20
2018-07-15T05:04:42.493Z,16.23
2018-07-15T05:06:35.538Z,16.13
2018-07-15T05:07:35.497Z,16.23
2018-07-15T05:09:28.517Z,16.24
2018-07-15T05:10:28.459Z,16.29
2018-07-15T05:12:21.471Z,16.32
2018-07-15T05:13:21.456Z,16.32
2018-07-15T05:15:14.634Z,16.41
2018-07-15T05:16:14.538Z,16.49
2018-07-15T05:18:07.543Z,16.50
2018-07-15T05:19:07.513Z,16.43
2018-07-15T05:21:00.516Z,16.54
2018-07-15T05:22:00.473Z,16.58
2018-07-15T05:23:53.500Z,16.64
2018-07-15T05:24:53.462Z,16.64
2018-07-15T05:26:46.495Z,16.71
2018-07-15T05:27:46.489Z,16.76
2018-07-15T05:29:39.608Z,16.76
2018-07-15T05:30:39.568Z,16.87
2018-07-15T05:32:32.595Z,16.97
2018-07-15T05:33:32.555Z,16.96
2018-07-15T05:35:25.575Z,17.01
2018-07-15T05:36:25.531Z,17.06
2018-07-15T05:38:18.360Z,17.06
2018-07-15T05:39:18.316Z,17.04
2018-07-15T05:41:11.211Z,17.23
2018-07-15T05:42:11.088Z,17.16
2018-07-15T05:44:04.090Z,17.24
2018-07-15T05:45:04.054Z,17.30
2018-07-15T05:46:57.061Z,17.38
2018-07-15T05:47:57.014Z,17.44
2018-07-15T05:49:49.849Z,17.33
2018-07-15T05:50:49.814Z,17.36
2018-07-15T05:52:42.833Z,17.46
2018-07-15T05:53:42.779Z,17.57
2018-07-15T05:55:35.786Z,17.45
2018-07-15T05:56:35.757Z,17.68
2018-07-15T05:58:28.929Z,17.70
2018-07-15T05:59:28.893Z,17.79
2018-07-15T06:01:21.885Z,17.72
2018-07-15T06:02:21.935Z,17.87
2018-07-15T06:04:15.130Z,17.90
2018-07-15T06:05:15.010Z,17.89
2018-07-15T06:07:08.001Z,18.05
2018-07-15T06:08:07.969Z,18.05
2018-07-15T06:10:00.971Z,18.10
2018-07-15T06:11:00.929Z,18.10
2018-07-15T06:12:53.972Z,18.11
2018-07-15T06:13:53.937Z,18.23
2018-07-15T06:15:46.980Z,18.28
2018-07-15T06:16:46.950Z,18.33
2018-07-15T06:18:40.215Z,18.34
2018-07-15T06:19:40.078Z,18.41
2018-07-15T06:21:33.071Z,18.47
2018-07-15T06:22:33.061Z,18.47
2018-07-15T06:24:26.056Z,18.47
2018-07-15T06:25:26.016Z,18.60
2018-07-15T06:27:19.106Z,18.60
2018-07-15T06:28:19.060Z,18.68
2018-07-15T06:30:11.913Z,18.74
2018-07-15T06:31:11.852Z,18.71
2018-07-15T06:33:04.856Z,18.77
2018-07-15T06:34:04.817Z,18.83
2018-07-15T06:35:57.650Z,18.89
2018-07-15T06:36:57.596Z,18.96
2018-07-15T06:38:50.636Z,18.93
2018-07-15T06:39:50.581Z,19.00
2018-07-15T06:41:43.632Z,19.08
2018-07-15T06:42:43.576Z,19.15
2018-07-15T06:44:36.721Z,19.24
2018-07-15T06:45:36.682Z,19.26
2018-07-15T06:47:29.708Z,19.24
2018-07-15T06:48:29.668Z,19.27
2018-07-15T06:50:22.681Z,19.41
2018-07-15T06:51:22.631Z,19.41
2018-07-15T06:53:15.467Z,19.51
2018-07-15T06:54:15.431Z,19.51
2018-07-15T06:56:08.479Z,19.59
2018-07-15T06:57:08.412Z,19.56
2018-07-15T06:59:01.712Z,19.69
2018-07-15T07:00:01.677Z,19.63
2018-07-15T07:01:54.729Z,19.71
2018-07-15T07:02:54.665Z,19.82
2018-07-15T07:04:47.677Z,19.85
2018-07-15T07:05:47.634Z,19.84
2018-07-15T07:07:40.858Z,19.96
2018-07-15T07:08:40.700Z,20.00
2018-07-15T07:10:33.743Z,20.10
2018-07-15T07:11:33.675Z,20.10
2018-07-15T07:13:26.862Z,20.21
2018-07-15T07:14:26.795Z,20.21
2018-07-15T07:16:19.804Z,20.28
2018-07-15T07:17:19.753Z,20.29
2018-07-15T07:19:12.581Z,20.32
2018-07-15T07:20:12.553Z,20.41
2018-07-15T07:22:05.376Z,20.48
2018-07-15T07:23:05.333Z,20.52
2018-07-15T07:24:58.243Z,20.62
2018-07-15T07:25:58.203Z,20.63
2018-07-15T07:27:51.245Z,20.67
2018-07-15T07:28:51.209Z,20.69
2018-07-15T07:30:44.181Z,20.75
2018-07-15T07:31:44.146Z,20.82
2018-07-15T07:33:37.338Z,20.92
2018-07-15T07:34:37.279Z,20.93
2018-07-15T07:36:30.303Z,21.03
2018-07-15T07:37:30.330Z,21.05
2018-07-15T07:39:23.065Z,21.02
2018-07-15T07:40:23.040Z,21.06
2018-07-15T07:42:15.891Z,21.18
2018-07-15T07:43:15.810Z,21.15
2018-07-15T07:45:08.843Z,21.18
2018-07-15T07:46:08.790Z,21.27
2018-07-15T07:48:01.795Z,21.32
2018-07-15T07:49:01.811Z,21.36
2018-07-15T07:50:54.591Z,21.37
2018-07-15T07:51:54.547Z,21.36
2018-07-15T07:53:47.398Z,21.58
2018-07-15T07:54:47.363Z,21.58
2018-07-15T07:56:40.352Z,21.72
2018-07-15T07:57:40.330Z,21.69
2018-07-15T07:59:33.471Z,21.85
2018-07-15T08:00:33.425Z,21.88
2018-07-15T08:02:26.500Z,21.92
2018-07-15T08:03:26.476Z,21.95
2018-07-15T08:05:19.517Z,21.98
2018-07-15T08:06:19.464Z,22.07
2018-07-15T08:08:12.633Z,22.18
2018-07-15T08:09:12.585Z,22.22
2018-07-15T08:11:05.618Z,22.26
2018-07-15T08:12:05.563Z,22.36
2018-07-15T08:13:58.585Z,22.43
2018-07-15T08:14:58.544Z,22.44
2018-07-15T08:16:51.587Z,22.55
2018-07-15T08:17:51.558Z,22.57
2018-07-15T08:19:44.615Z,22.76
2018-07-15T08:20:44.588Z,22.78
2018-07-15T08:22:37.383Z,22.91
2018-07-15T08:23:37.342Z,22.93
2018-07-15T08:25:30.517Z,23.06
2018-07-15T08:26:30.480Z,22.99
2018-07-15T08:28:23.595Z,23.21
2018-07-15T08:29:23.448Z,23.17
2018-07-15T08:31:16.292Z,23.36
2018-07-15T08:32:16.259Z,23.34
2018-07-15T08:34:09.337Z,23.47
2018-07-15T08:35:09.302Z,23.46
2018-07-15T08:37:02.152Z,23.51
2018-07-15T08:38:02.098Z,23.50
2018-07-15T08:39:55.111Z,23.62
2018-07-15T08:40:55.081Z,23.63
2018-07-15T08:42:47.917Z,23.71
2018-07-15T08:43:47.874Z,23.80
2018-07-15T08:45:40.878Z,23.80
2018-07-15T08:46:40.860Z,23.83
2018-07-15T08:48:33.868Z,23.87
2018-07-15T08:49:33.818Z,23.96
2018-07-15T08:51:26.997Z,24.01
2018-07-15T08:52:26.958Z,23.99
2018-07-15T08:54:19.969Z,24.10
2018-07-15T08:55:19.929Z,24.05
2018-07-15T08:57:13.085Z,24.17
2018-07-15T08:58:13.064Z,24.18
2018-07-15T09:00:06.133Z,24.35
2018-07-15T09:01:06.103Z,24.39
2018-07-15T09:02:59.142Z,24.38
2018-07-15T09:03:59.098Z,24.47
2018-07-15T09:05:52.142Z,24.45
2018-07-15T09:06:52.110Z,24.50
2018-07-15T09:08:44.952Z,24.48
2018-07-15T09:09:44.894Z,24.47
2018-07-15T09:11:37.912Z,24.58
2018-07-15T09:12:37.928Z,24.60
2018-07-15T09:14:30.729Z,24.66
2018-07-15T09:15:30.672Z,24.60
2018-07-15T09:17:23.709Z,24.74
2018-07-15T09:18:23.716Z,24.77
2018-07-15T09:20:16.747Z,24.88
2018-07-15T09:21:16.746Z,24.93
2018-07-15T09:23:09.584Z,25.17
2018-07-15T09:24:09.543Z,25.23
2018-07-15T09:26:02.595Z,25.28
2018-07-15T09:27:02.568Z,25.28
2018-07-15T09:28:55.614Z,25.41
2018-07-15T09:29:55.575Z,25.35
2018-07-15T09:31:48.394Z,25.48
2018-07-15T09:32:48.359Z,25.66
2018-07-15T09:34:41.430Z,25.73
2018-07-15T09:35:41.495Z,25.68
2018-07-15T09:37:34.431Z,25.78
2018-07-15T09:38:34.388Z,25.77
2018-07-15T09:40:27.619Z,25.85
2018-07-15T09:41:27.553Z,25.93
2018-07-15T09:43:20.589Z,26.02
2018-07-15T09:44:20.563Z,26.03
2018-07-15T09:46:13.844Z,26.22
2018-07-15T09:47:13.720Z,26.07
2018-07-15T09:49:06.775Z,26.18
2018-07-15T09:50:06.742Z,26.31
2018-07-15T09:51:59.970Z,26.41
2018-07-15T09:52:59.935Z,26.53
2018-07-15T09:54:52.989Z,26.53
2018-07-15T09:55:52.959Z,26.63
2018-07-15T09:57:46.191Z,26.75
2018-07-15T09:58:46.136Z,26.71
2018-07-15T10:00:39.204Z,26.90
2018-07-15T10:01:39.259Z,26.95
2018-07-15T10:03:32.416Z,26.95
2018-07-15T10:04:32.410Z,26.84
2018-07-15T10:06:25.450Z,26.84
2018-07-15T10:07:25.509Z,27.03
2018-07-15T10:09:18.647Z,27.59
2018-07-15T10:10:18.618Z,28.12
2018-07-15T10:12:11.467Z,28.76
2018-07-15T10:13:11.433Z,29.19
2018-07-15T10:15:04.486Z,29.72
2018-07-15T10:16:04.435Z,29.72
2018-07-15T10:17:57.301Z,30.40
2018-07-15T10:18:57.314Z,30.54
2018-07-15T10:20:50.325Z,31.18
2018-07-15T10:21:50.279Z,31.76
2018-07-15T10:23:43.131Z,32.48
2018-07-15T10:24:43.160Z,32.38
2018-07-15T10:26:36.392Z,33.47
2018-07-15T10:27:36.250Z,33.74
2018-07-15T10:29:29.277Z,34.05
2018-07-15T10:30:29.250Z,34.10
2018-07-15T10:32:22.307Z,34.25
2018-07-15T10:33:22.263Z,34.57
2018-07-15T10:35:15.310Z,34.89
2018-07-15T10:36:15.292Z,35.34
2018-07-15T10:38:08.361Z,35.67
2018-07-15T10:39:08.419Z,35.78
2018-07-15T10:41:01.192Z,35.80
2018-07-15T10:42:01.162Z,35.60
2018-07-15T10:43:54.216Z,35.64
2018-07-15T10:44:54.185Z,35.90
2018-07-15T10:46:47.220Z,36.57
2018-07-15T10:47:47.196Z,36.86
2018-07-15T10:49:40.064Z,36.79
2018-07-15T10:50:40.016Z,36.89
2018-07-15T10:52:33.084Z,37.06
2018-07-15T10:53:33.037Z,36.68
2018-07-15T10:55:26.088Z,36.05
2018-07-15T10:56:26.071Z,36.40
2018-07-15T10:58:19.202Z,37.08
2018-07-15T10:59:19.165Z,37.39
2018-07-15T11:01:12.718Z,37.83
2018-07-15T11:02:12.493Z,38.05
2018-07-15T11:04:05.528Z,38.19
2018-07-15T11:05:05.497Z,38.46
2018-07-15T11:06:58.559Z,38.52
2018-07-15T11:07:58.533Z,37.75
2018-07-15T11:09:51.448Z,37.44
2018-07-15T11:10:51.416Z,37.26
2018-07-15T11:12:44.529Z,37.94
2018-07-15T11:13:44.497Z,37.72
2018-07-15T11:15:37.615Z,37.42
2018-07-15T11:16:37.624Z,37.17
2018-07-15T11:18:30.645Z,37.30
2018-07-15T11:19:30.616Z,37.64
2018-07-15T11:21:23.656Z,36.93
2018-07-15T11:22:23.701Z,36.23
2018-07-15T11:24:16.498Z,35.74
2018-07-15T11:25:16.460Z,36.02
2018-07-15T11:27:09.574Z,37.20
2018-07-15T11:28:09.546Z,37.77
2018-07-15T11:30:02.389Z,37.83
2018-07-15T11:31:02.524Z,37.89
2018-07-15T11:32:55.572Z,37.94
2018-07-15T11:33:55.534Z,38.26
2018-07-15T11:35:48.381Z,38.09
2018-07-15T11:36:48.353Z,37.60
2018-07-15T11:38:41.653Z,38.06
2018-07-15T11:39:41.388Z,38.30
2018-07-15T11:41:34.350Z,38.34
2018-07-15T11:42:34.228Z,38.49
2018-07-15T11:44:27.372Z,38.69
2018-07-15T11:45:27.388Z,38.26
2018-07-15T11:47:20.638Z,38.71
2018-07-15T11:48:20.597Z,38.91
2018-07-15T11:50:13.580Z,39.30
2018-07-15T11:51:13.583Z,39.26
2018-07-15T11:53:06.854Z,38.79
2018-07-15T11:54:06.744Z,38.45
2018-07-15T11:55:59.805Z,38.42
2018-07-15T11:56:59.754Z,38.09
2018-07-15T11:58:52.853Z,38.01
2018-07-15T11:59:52.820Z,37.92
2018-07-15T12:01:45.690Z,38.26
2018-07-15T12:02:45.668Z,38.38
2018-07-15T12:04:38.713Z,37.30
2018-07-15T12:05:38.705Z,37.65
2018-07-15T12:07:31.902Z,36.18
2018-07-15T12:08:31.883Z,36.42
2018-07-15T12:10:24.913Z,37.59
2018-07-15T12:11:24.875Z,38.09
2018-07-15T12:13:17.743Z,38.34
2018-07-15T12:14:17.708Z,36.68
2018-07-15T12:16:10.595Z,36.54
2018-07-15T12:17:10.555Z,36.55
2018-07-15T12:19:03.614Z,37.47
2018-07-15T12:20:03.581Z,37.72
2018-07-15T12:21:56.636Z,37.99
2018-07-15T12:22:56.605Z,37.87
2018-07-15T12:24:49.470Z,37.68
2018-07-15T12:25:49.448Z,38.02
2018-07-15T12:27:42.479Z,37.39
2018-07-15T12:28:42.444Z,37.01
2018-07-15T12:30:35.527Z,36.79
2018-07-15T12:31:35.474Z,36.65
2018-07-15T12:33:28.418Z,36.81
2018-07-15T12:34:28.315Z,36.36
2018-07-15T12:36:21.410Z,37.08
2018-07-15T12:37:21.375Z,36.86
2018-07-15T12:39:14.689Z,36.52
2018-07-15T12:40:14.566Z,36.96
2018-07-15T12:42:07.420Z,36.72
2018-07-15T12:43:07.397Z,36.47
2018-07-15T12:45:00.437Z,37.10
2018-07-15T12:46:00.406Z,36.83
2018-07-15T12:47:53.582Z,36.37
2018-07-15T12:48:53.536Z,36.45
2018-07-15T12:50:46.612Z,36.83
2018-07-15T12:51:46.567Z,37.10
2018-07-15T12:53:39.760Z,36.84
2018-07-15T12:54:39.758Z,36.81
2018-07-15T12:56:32.806Z,37.23
2018-07-15T12:57:32.856Z,36.36
2018-07-15T12:59:26.017Z,36.37
2018-07-15T13:00:25.926Z,36.96
2018-07-15T13:02:18.975Z,35.53
2018-07-15T13:03:18.951Z,35.78
2018-07-15T13:05:12.248Z,36.42
2018-07-15T13:06:12.101Z,36.95
2018-07-15T13:08:05.152Z,36.42
2018-07-15T13:09:05.131Z,35.88
2018-07-15T13:10:58.192Z,36.62
2018-07-15T13:11:58.135Z,36.96
2018-07-15T13:13:51.185Z,36.61
2018-07-15T13:14:51.162Z,36.25
2018-07-15T13:16:44.203Z,36.23
2018-07-15T13:17:44.217Z,36.25
2018-07-15T13:19:37.372Z,35.37
2018-07-15T13:20:37.332Z,35.71
2018-07-15T13:22:30.393Z,36.62
2018-07-15T13:23:30.388Z,37.07
2018-07-15T13:25:23.213Z,36.64
2018-07-15T13:26:23.196Z,36.21
2018-07-15T13:28:16.106Z,36.14
2018-07-15T13:29:16.104Z,36.35
2018-07-15T13:31:09.108Z,36.47
2018-07-15T13:32:09.068Z,37.01
2018-07-15T13:34:02.121Z,37.02
2018-07-15T13:35:02.094Z,37.06
2018-07-15T13:36:55.158Z,36.47
2018-07-15T13:37:55.130Z,36.24
2018-07-15T13:39:48.170Z,36.16
2018-07-15T13:40:48.157Z,36.05
2018-07-15T13:42:41.021Z,35.45
2018-07-15T13:43:40.995Z,35.63
2018-07-15T13:45:34.058Z,35.71
2018-07-15T13:46:34.020Z,35.76
2018-07-15T13:48:27.069Z,36.37
2018-07-15T13:49:27.032Z,36.27
2018-07-15T13:51:19.878Z,36.04
2018-07-15T13:52:19.857Z,35.64
2018-07-15T13:54:12.978Z,35.49
2018-07-15T13:55:12.916Z,35.55
2018-07-15T13:57:07.876Z,35.79
2018-07-15T13:58:05.952Z,36.08
2018-07-15T13:59:58.813Z,36.25
2018-07-15T14:00:58.774Z,36.49
2018-07-15T14:02:51.838Z,35.22
2018-07-15T14:03:51.794Z,34.90
2018-07-15T14:05:44.825Z,34.86
2018-07-15T14:06:44.789Z,35.12
2018-07-15T14:08:37.664Z,36.12
2018-07-15T14:09:37.642Z,36.20
2018-07-15T14:11:30.499Z,36.02
2018-07-15T14:12:30.464Z,35.95
2018-07-15T14:14:23.532Z,35.73
2018-07-15T14:15:23.550Z,35.53
2018-07-15T14:17:16.657Z,35.76
2018-07-15T14:18:16.649Z,35.61
2018-07-15T14:20:10.666Z,34.89
2018-07-15T14:21:10.695Z,34.67
2018-07-15T14:23:03.898Z,35.41
2018-07-15T14:24:03.880Z,35.52
2018-07-15T14:25:56.919Z,36.01
2018-07-15T14:26:56.875Z,36.18
2018-07-15T14:28:49.734Z,35.98
2018-07-15T14:29:49.700Z,35.78
2018-07-15T14:31:42.719Z,35.08
2018-07-15T14:32:42.693Z,34.96
2018-07-15T14:34:37.661Z,35.11
2018-07-15T14:35:35.755Z,35.02
2018-07-15T14:37:28.988Z,35.26
2018-07-15T14:38:28.848Z,35.30
2018-07-15T14:40:21.887Z,35.51
2018-07-15T14:41:21.846Z,35.53
2018-07-15T14:43:14.921Z,35.82
2018-07-15T14:44:14.889Z,35.82
2018-07-15T14:46:07.991Z,35.64
2018-07-15T14:47:07.920Z,35.78
2018-07-15T14:49:00.934Z,35.66
2018-07-15T14:50:00.915Z,35.58
2018-07-15T14:51:54.374Z,35.27
2018-07-15T14:52:53.743Z,35.18
2018-07-15T14:54:46.765Z,35.46
2018-07-15T14:55:46.745Z,35.79
2018-07-15T14:57:39.785Z,35.51
2018-07-15T14:58:39.734Z,35.46
2018-07-15T15:00:32.944Z,35.31
2018-07-15T15:01:32.865Z,35.11
2018-07-15T15:03:25.896Z,34.93
2018-07-15T15:04:25.915Z,35.56
2018-07-15T15:06:18.706Z,34.99
2018-07-15T15:07:18.689Z,34.89
2018-07-15T15:09:12.010Z,35.11
2018-07-15T15:10:11.961Z,35.18
2018-07-15T15:12:05.068Z,35.34
2018-07-15T15:13:05.109Z,35.34
2018-07-15T15:14:58.075Z,34.85
2018-07-15T15:15:58.060Z,35.08
2018-07-15T15:17:51.111Z,35.00
2018-07-15T15:18:51.066Z,34.97
2018-07-15T15:20:44.277Z,35.37
2018-07-15T15:21:44.261Z,35.48
2018-07-15T15:23:37.298Z,35.19
2018-07-15T15:24:37.296Z,35.46
2018-07-15T15:26:30.545Z,35.56
2018-07-15T15:27:30.511Z,35.79
2018-07-15T15:29:23.581Z,35.34
2018-07-15T15:30:23.551Z,34.70
2018-07-15T15:32:16.382Z,34.36
2018-07-15T15:33:16.365Z,34.45
2018-07-15T15:35:09.444Z,34.43
2018-07-15T15:36:09.416Z,34.23
2018-07-15T15:38:02.456Z,34.93
2018-07-15T15:39:02.432Z,35.24
2018-07-15T15:40:55.592Z,35.14
2018-07-15T15:41:55.575Z,35.15
2018-07-15T15:43:48.552Z,34.64
2018-07-15T15:44:48.650Z,34.90
2018-07-15T15:46:41.734Z,34.73
2018-07-15T15:47:41.684Z,34.67
2018-07-15T15:49:34.733Z,34.52
2018-07-15T15:50:34.678Z,34.43
2018-07-15T15:52:27.711Z,34.32
2018-07-15T15:53:27.683Z,34.45
2018-07-15T15:55:20.783Z,34.39
2018-07-15T15:56:20.738Z,34.45
2018-07-15T15:58:13.912Z,34.50
2018-07-15T15:59:13.753Z,34.36
2018-07-15T16:01:06.699Z,34.27
2018-07-15T16:02:06.663Z,34.50
2018-07-15T16:03:59.513Z,34.14
2018-07-15T16:04:59.475Z,34.03
2018-07-15T16:06:52.346Z,33.87
2018-07-15T16:07:52.298Z,34.20
2018-07-15T16:09:45.314Z,34.20
2018-07-15T16:10:45.280Z,34.47
2018-07-15T16:12:38.353Z,34.52
2018-07-15T16:13:38.335Z,34.48
2018-07-15T16:15:31.365Z,34.52
2018-07-15T16:16:31.409Z,34.81
2018-07-15T16:18:24.451Z,34.70
2018-07-15T16:19:24.424Z,34.62
2018-07-15T16:21:17.283Z,34.08
2018-07-15T16:22:17.258Z,34.20
2018-07-15T16:24:10.263Z,34.23
2018-07-15T16:25:10.284Z,34.30
2018-07-15T16:27:03.443Z,34.48
2018-07-15T16:28:03.360Z,34.05
2018-07-15T16:29:56.362Z,34.25
2018-07-15T16:30:56.352Z,33.96
2018-07-15T16:32:49.565Z,33.98
2018-07-15T16:33:49.564Z,34.25
2018-07-15T16:35:42.540Z,34.13
2018-07-15T16:36:42.519Z,33.87
2018-07-15T16:38:35.546Z,33.45
2018-07-15T16:39:35.506Z,33.30
2018-07-15T16:41:28.386Z,33.64
2018-07-15T16:42:28.385Z,33.92
2018-07-15T16:44:21.223Z,33.89
2018-07-15T16:45:21.176Z,33.55
2018-07-15T16:47:14.021Z,33.58
2018-07-15T16:48:13.994Z,33.57
2018-07-15T16:50:07.063Z,33.28
2018-07-15T16:51:07.009Z,33.24
2018-07-15T16:52:59.851Z,33.02
2018-07-15T16:53:59.814Z,33.08
2018-07-15T16:55:52.895Z,33.42
2018-07-15T16:56:52.801Z,33.83
2018-07-15T16:58:45.823Z,34.30
2018-07-15T16:59:45.756Z,34.54
2018-07-15T17:01:38.646Z,34.25
2018-07-15T17:02:38.615Z,34.03
2018-07-15T17:04:31.609Z,33.92
2018-07-15T17:05:31.580Z,33.76
2018-07-15T17:07:24.576Z,33.43
2018-07-15T17:08:24.541Z,33.58
2018-07-15T17:10:17.390Z,33.28
2018-07-15T17:11:17.365Z,33.02
2018-07-15T17:13:10.198Z,32.97
2018-07-15T17:14:10.199Z,33.23
2018-07-15T17:16:03.175Z,33.23
2018-07-15T17:17:03.123Z,33.15
2018-07-15T17:18:56.182Z,32.64
2018-07-15T17:19:56.139Z,32.56
2018-07-15T17:21:48.975Z,32.52
2018-07-15T17:22:48.951Z,32.67
2018-07-15T17:24:41.842Z,32.63
2018-07-15T17:25:41.765Z,32.46
2018-07-15T17:27:34.625Z,31.84
2018-07-15T17:28:34.571Z,31.81
2018-07-15T17:30:27.581Z,31.81
2018-07-15T17:31:27.540Z,31.66
2018-07-15T17:33:20.676Z,31.37
2018-07-15T17:34:20.667Z,31.34
2018-07-15T17:36:13.674Z,31.37
2018-07-15T17:37:13.726Z,31.34
2018-07-15T17:39:06.757Z,31.43
2018-07-15T17:40:06.732Z,31.33
2018-07-15T17:41:59.811Z,31.06
2018-07-15T17:42:59.702Z,31.10
2018-07-15T17:44:52.696Z,30.99
2018-07-15T17:45:52.696Z,31.05
2018-07-15T17:47:46.028Z,31.14
2018-07-15T17:48:45.990Z,31.12
2018-07-15T17:50:40.017Z,30.84
2018-07-15T17:51:39.949Z,30.81
2018-07-15T17:53:32.811Z,30.85
2018-07-15T17:54:32.756Z,30.66
2018-07-15T17:56:25.775Z,30.57
2018-07-15T17:57:25.723Z,30.57
2018-07-15T17:59:18.737Z,30.46
2018-07-15T18:00:18.728Z,30.44
2018-07-15T18:02:11.681Z,30.16
2018-07-15T18:03:11.658Z,30.05
2018-07-15T18:05:04.624Z,30.00
2018-07-15T18:06:04.601Z,30.08
2018-07-15T18:07:57.452Z,29.95
2018-07-15T18:08:57.408Z,29.93
2018-07-15T18:10:50.544Z,29.71
2018-07-15T18:11:50.515Z,29.72
2018-07-15T18:13:43.528Z,29.63
2018-07-15T18:14:43.481Z,29.75
2018-07-15T18:16:36.487Z,29.49
2018-07-15T18:17:36.436Z,29.45
2018-07-15T18:19:29.331Z,29.53
2018-07-15T18:20:29.303Z,29.49
2018-07-15T18:22:22.162Z,29.31
2018-07-15T18:23:22.084Z,29.23
2018-07-15T18:25:15.088Z,29.32
2018-07-15T18:26:15.049Z,29.26
2018-07-15T18:28:08.067Z,29.12
2018-07-15T18:29:08.013Z,29.12
2018-07-15T18:31:00.871Z,29.07
2018-07-15T18:32:00.827Z,29.02
2018-07-15T18:33:53.870Z,28.91